Time;durP1;ratioP1;P1;durP2;ratioP2;P2;SDS_P1;SDS_P2;PMS_P1;PMS_P2;Temp;Humidity;BMP_temperature;BMP_pressure;BME280_temperature;BME280_humidity;BME280_pressure;Samples;Min_cycle;Max_cycle;Signal;HPM_P1;HPM_P2
2022/10/31 00:01:01;;;;;;;20.45;14.02;;;;;;;12.60;100.00;101981.28;5049493;28;20025;-82
2022/10/31 00:03:26;;;;;;;22.05;14.00;;;;;;;12.53;100.00;101975.56;5032065;28;20039;-81
2022/10/31 00:05:53;;;;;;;21.45;15.05;;;;;;;12.54;100.00;101977.25;5012362;28;20030;-82
2022/10/31 00:08:18;;;;;;;22.30;15.18;;;;;;;12.53;100.00;101986.97;5062648;28;20037;-82
2022/10/31 00:10:45;;;;;;;21.98;15.52;;;;;;;12.49;100.00;101985.47;5045902;28;20026;-82
2022/10/31 00:13:12;;;;;;;21.92;15.00;;;;;;;12.58;100.00;101981.38;5027646;28;20389;-82
2022/10/31 00:15:39;;;;;;;22.98;15.30;;;;;;;12.59;100.00;101984.88;5029100;28;20397;-82
2022/10/31 00:18:05;;;;;;;21.63;14.80;;;;;;;12.57;100.00;101979.69;5036602;28;20163;-82
2022/10/31 00:20:31;;;;;;;19.50;15.13;;;;;;;12.53;100.00;101983.47;5042613;28;20025;-82
2022/10/31 00:23:01;;;;;;;21.83;15.00;;;;;;;12.53;100.00;101981.69;5060978;28;20504;-82
2022/10/31 00:25:28;;;;;;;21.05;15.35;;;;;;;12.48;100.00;101988.19;5061758;28;20552;-82
2022/10/31 00:27:54;;;;;;;18.48;14.73;;;;;;;12.43;100.00;101980.56;5035138;28;20021;-82
2022/10/31 00:30:20;;;;;;;19.95;14.25;;;;;;;12.33;100.00;101979.44;5049116;28;20400;-82
2022/10/31 00:32:45;;;;;;;20.65;14.70;;;;;;;12.32;100.00;101975.09;5049399;28;20032;-82
2022/10/31 00:35:10;;;;;;;21.58;14.82;;;;;;;12.35;100.00;101980.19;5045514;28;20118;-82
2022/10/31 00:37:36;;;;;;;24.38;14.88;;;;;;;12.31;100.00;101976.06;5026005;28;20025;-82
2022/10/31 00:40:01;;;;;;;24.73;14.65;;;;;;;12.31;100.00;101969.94;5060786;28;20064;-82
2022/10/31 00:42:26;;;;;;;20.00;14.48;;;;;;;12.29;100.00;101966.53;5040980;28;20448;-82
2022/10/31 00:44:52;;;;;;;22.00;15.00;;;;;;;12.27;100.00;101961.34;5048744;28;20072;-82
2022/10/31 00:47:17;;;;;;;25.40;15.52;;;;;;;12.24;100.00;101967.69;5047858;28;20045;-83
2022/10/31 00:49:42;;;;;;;19.15;14.05;;;;;;;12.20;100.00;101975.88;5049184;28;20060;-82
2022/10/31 00:52:08;;;;;;;19.77;14.77;;;;;;;12.17;100.00;101969.00;5049255;28;20032;-82
2022/10/31 00:54:33;;;;;;;16.83;14.30;;;;;;;12.14;100.00;101968.38;5037597;28;20026;-82
2022/10/31 00:56:58;;;;;;;20.35;14.07;;;;;;;12.17;100.00;101965.53;5029422;28;20482;-82
2022/10/31 00:59:24;;;;;;;20.33;14.65;;;;;;;12.13;100.00;101971.94;5048239;28;20099;-82
2022/10/31 01:01:49;;;;;;;21.70;14.95;;;;;;;12.11;100.00;101979.97;5049245;28;20029;-83
2022/10/31 01:04:15;;;;;;;17.77;14.30;;;;;;;12.09;100.00;101975.72;5049499;28;20854;-82
2022/10/31 01:06:40;;;;;;;17.85;14.40;;;;;;;12.10;100.00;101972.97;5048563;28;20503;-82
2022/10/31 01:09:05;;;;;;;19.48;15.00;;;;;;;12.08;100.00;101964.31;5048112;28;20463;-82
2022/10/31 01:11:31;;;;;;;22.27;14.88;;;;;;;12.03;100.00;101955.00;5030247;28;20747;-83
2022/10/31 01:13:56;;;;;;;19.15;15.18;;;;;;;12.00;100.00;101944.63;5029530;28;20072;-82
2022/10/31 01:16:24;;;;;;;29.63;16.48;;;;;;;11.95;100.00;101941.41;5027294;28;20141;-82
2022/10/31 01:18:50;;;;;;;19.58;14.57;;;;;;;11.97;100.00;101945.66;5026869;28;20029;-82
2022/10/31 01:21:21;;;;;;;18.52;13.48;;;;;;;11.96;100.00;101953.66;5028095;28;20304;-82
2022/10/31 01:23:47;;;;;;;19.30;14.35;;;;;;;11.88;100.00;101952.34;5027137;28;20037;-82
2022/10/31 01:26:17;;;;;;;17.40;13.65;;;;;;;11.84;100.00;101953.47;5029115;28;20032;-82
2022/10/31 01:28:51;;;;;;;16.83;13.85;;;;;;;11.82;100.00;101954.53;5038146;28;20080;-83
2022/10/31 01:31:18;;;;;;;15.98;14.05;;;;;;;11.88;100.00;101962.91;5040079;28;20037;-83
2022/10/31 01:33:43;;;;;;;19.48;13.48;;;;;;;11.87;100.00;101961.22;5014948;28;20528;-83
2022/10/31 01:36:16;;;;;;;18.15;13.77;;;;;;;11.78;100.00;101969.69;5018270;28;20021;-83
2022/10/31 01:38:42;;;;;;;22.85;14.63;;;;;;;11.75;100.00;101964.56;5031191;28;20099;-83
2022/10/31 01:41:09;;;;;;;18.02;14.38;;;;;;;11.72;100.00;101964.75;5048486;28;20259;-82
2022/10/31 01:43:47;;;;;;;18.52;14.70;;;;;;;11.71;100.00;101965.69;5038337;28;20041;-83
2022/10/31 01:46:13;;;;;;;21.27;13.90;;;;;;;11.59;100.00;101966.41;5008736;28;20287;-83
2022/10/31 01:48:41;;;;;;;19.40;14.60;;;;;;;11.54;100.00;101969.34;5030423;28;20029;-83
2022/10/31 01:51:07;;;;;;;20.95;15.25;;;;;;;11.62;100.00;101963.63;5035097;28;20021;-83
2022/10/31 01:53:33;;;;;;;20.67;15.25;;;;;;;11.64;100.00;101959.09;5029129;28;20095;-83
2022/10/31 01:56:00;;;;;;;21.40;15.90;;;;;;;11.62;100.00;101961.00;5042493;28;20040;-83
2022/10/31 01:58:30;;;;;;;23.65;16.40;;;;;;;11.62;100.00;101961.00;5052245;28;20184;-83
2022/10/31 02:01:01;;;;;;;26.20;17.13;;;;;;;11.65;100.00;101960.81;5052268;28;20029;-82
2022/10/31 02:03:28;;;;;;;25.70;17.45;;;;;;;11.63;100.00;101960.06;5061029;28;20086;-83
2022/10/31 02:05:58;;;;;;;24.73;17.13;;;;;;;11.59;100.00;101956.72;5031491;28;20025;-83
2022/10/31 02:08:29;;;;;;;24.70;17.15;;;;;;;11.68;100.00;101960.63;5042671;28;20043;-83
2022/10/31 02:11:00;;;;;;;23.80;17.10;;;;;;;11.67;100.00;101944.91;5053216;28;20021;-83
2022/10/31 02:13:25;;;;;;;22.45;16.83;;;;;;;11.64;100.00;101943.28;5051366;28;20367;-83
2022/10/31 02:15:53;;;;;;;23.10;16.73;;;;;;;11.68;100.00;101944.78;5052816;28;20041;-83
2022/10/31 02:18:19;;;;;;;21.83;17.45;;;;;;;11.64;100.00;101943.28;5067497;28;20047;-83
2022/10/31 02:21:04;;;;;;;23.27;16.35;;;;;;;11.62;100.00;101953.09;5038236;28;20249;-83
2022/10/31 02:24:20;;;;;;;20.20;15.75;;;;;;;11.59;100.00;101947.97;5036187;28;20521;-83
2022/10/31 02:26:58;;;;;;;23.67;15.32;;;;;;;11.52;100.00;101949.28;5041661;28;20042;-82
2022/10/31 02:29:56;;;;;;;20.83;15.57;;;;;;;11.44;100.00;101947.13;5061696;28;20021;-82
2022/10/31 02:32:58;;;;;;;20.30;15.07;;;;;;;11.47;100.00;101951.34;5064129;28;20056;-83
2022/10/31 02:35:47;;;;;;;20.67;14.52;;;;;;;11.37;100.00;101944.94;5044215;28;20025;-83
2022/10/31 02:38:25;;;;;;;19.05;14.57;;;;;;;11.25;100.00;101947.38;5046592;28;20025;-83
2022/10/31 02:40:57;;;;;;;18.67;15.27;;;;;;;11.19;100.00;101947.72;5064179;28;20021;-82
2022/10/31 02:44:07;;;;;;;18.08;14.50;;;;;;;11.18;100.00;101940.75;5064884;28;20032;-82
2022/10/31 02:46:54;;;;;;;20.10;15.32;;;;;;;11.16;100.00;101953.16;5054843;28;20049;-83
2022/10/31 02:49:43;;;;;;;18.45;14.27;;;;;;;11.14;100.00;101939.22;5062238;28;20029;-82
2022/10/31 02:52:24;;;;;;;21.10;15.27;;;;;;;11.10;100.00;101940.34;5062483;28;20045;-83
2022/10/31 02:54:50;;;;;;;19.83;15.35;;;;;;;11.11;100.00;101936.78;5044028;28;20021;-83
2022/10/31 02:57:20;;;;;;;25.17;17.10;;;;;;;11.17;100.00;101944.31;5044650;28;20318;-82
2022/10/31 02:59:52;;;;;;;22.83;16.42;;;;;;;11.18;100.00;101942.53;5023020;28;20040;-83
2022/10/31 03:02:41;;;;;;;21.77;16.60;;;;;;;11.23;100.00;101944.00;5021862;28;20386;-82
2022/10/31 03:05:34;;;;;;;19.17;16.70;;;;;;;11.29;100.00;101945.41;5017105;28;20030;-83
2022/10/31 03:08:05;;;;;;;22.52;16.48;;;;;;;11.28;100.00;101944.56;5023730;28;20021;-83
2022/10/31 03:10:45;;;;;;;25.00;16.63;;;;;;;11.31;100.00;101948.78;5031813;28;20037;-84
2022/10/31 03:13:16;;;;;;;18.83;15.25;;;;;;;11.28;100.00;101944.56;5031147;28;20458;-83
2022/10/31 03:15:50;;;;;;;25.63;15.98;;;;;;;11.29;100.00;101948.03;5031016;28;20022;-83
2022/10/31 03:18:26;;;;;;;20.33;15.82;;;;;;;11.19;100.00;101941.59;5037489;28;20284;-83
2022/10/31 03:21:25;;;;;;;21.58;15.80;;;;;;;11.21;100.00;101937.97;5053196;28;20029;-83
2022/10/31 03:23:53;;;;;;;21.30;14.80;;;;;;;11.10;100.00;101940.34;5008845;28;20505;-83
2022/10/31 03:26:21;;;;;;;19.30;15.25;;;;;;;11.00;100.00;101941.84;5018825;28;20030;-83
2022/10/31 03:28:52;;;;;;;18.52;15.70;;;;;;;10.96;100.00;101943.81;5042900;28;20029;-83
2022/10/31 03:31:22;;;;;;;20.30;14.93;;;;;;;10.90;100.00;101944.16;5064416;28;20083;-84
2022/10/31 03:33:49;;;;;;;20.50;14.95;;;;;;;10.83;100.00;101942.81;5044038;28;20477;-83
2022/10/31 03:36:16;;;;;;;19.23;14.20;;;;;;;10.78;100.00;101946.63;5028988;28;20048;-83
2022/10/31 03:38:44;;;;;;;18.40;14.43;;;;;;;10.73;100.00;101943.41;5035055;28;20056;-83
2022/10/31 03:41:27;;;;;;;19.75;14.57;;;;;;;10.70;100.00;101947.06;5024630;28;20367;-84
2022/10/31 03:43:56;;;;;;;;;;;;;;;10.88;100.00;101942.56;5010148;28;20060;-84
2022/10/31 03:46:22;;;;;;;20.42;14.85;;;;;;;10.66;100.00;101937.66;5010274;28;19925;-84
2022/10/31 03:48:48;;;;;;;22.45;15.57;;;;;;;10.62;100.00;101931.72;5034186;28;20096;-84
2022/10/31 03:51:25;;;;;;;19.27;15.07;;;;;;;10.61;100.00;101940.56;5046609;28;20462;-84
2022/10/31 03:54:15;;;;;;;19.42;15.43;;;;;;;10.63;100.00;101932.56;5064465;28;20037;-84
2022/10/31 03:56:49;;;;;;;20.15;15.45;;;;;;;10.55;100.00;101935.63;5036286;28;20029;-84
2022/10/31 03:59:25;;;;;;;18.77;15.40;;;;;;;10.59;100.00;101926.63;5032625;28;20096;-84
2022/10/31 04:01:56;;;;;;;21.98;15.57;;;;;;;10.55;100.00;101930.38;5030855;28;20262;-84
2022/10/31 04:04:22;;;;;;;21.95;14.77;;;;;;;10.54;100.00;101933.94;5064539;28;20060;-84
2022/10/31 04:06:50;;;;;;;19.88;15.57;;;;;;;10.52;100.00;101934.97;5049791;28;20071;-84
2022/10/31 04:09:17;;;;;;;22.15;15.90;;;;;;;10.51;100.00;101931.50;5048884;28;20122;-84
2022/10/31 04:11:49;;;;;;;19.80;15.35;;;;;;;10.50;100.00;101937.69;5049392;28;20075;-84
2022/10/31 04:14:14;;;;;;;22.27;16.25;;;;;;;10.51;100.00;101947.28;5065136;28;20013;-84
2022/10/31 04:16:42;;;;;;;18.55;15.32;;;;;;;10.53;100.00;101948.03;5036211;28;20087;-84
2022/10/31 04:19:08;;;;;;;23.23;15.65;;;;;;;10.56;100.00;101936.50;5041577;28;20033;-84
2022/10/31 04:21:33;;;;;;;21.25;16.15;;;;;;;10.56;100.00;101939.97;5065138;28;20500;-85
2022/10/31 04:23:58;;;;;;;19.67;15.85;;;;;;;10.60;100.00;101935.38;5049421;28;20052;-84
2022/10/31 04:26:24;;;;;;;22.48;15.40;;;;;;;10.59;100.00;101937.16;5049429;28;20051;-85
2022/10/31 04:28:49;;;;;;;18.35;14.80;;;;;;;10.58;100.00;101951.25;5049292;28;20508;-85
2022/10/31 04:31:15;;;;;;;21.60;15.75;;;;;;;10.60;100.00;101943.28;5049519;28;20276;-85
2022/10/31 04:33:40;;;;;;;26.05;15.57;;;;;;;10.64;100.00;101943.00;5037657;28;20030;-84
2022/10/31 04:36:06;;;;;;;22.02;15.70;;;;;;;10.69;100.00;101945.38;5040931;28;20424;-84
2022/10/31 04:38:32;;;;;;;19.85;16.48;;;;;;;10.66;100.00;101950.81;5064370;28;20031;-83
2022/10/31 04:40:57;;;;;;;19.50;16.75;;;;;;;10.65;100.00;101947.34;5047056;28;20037;-83
2022/10/31 04:43:22;;;;;;;22.15;16.05;;;;;;;10.66;100.00;101949.03;5028846;28;20029;-83
2022/10/31 04:45:48;;;;;;;23.42;16.13;;;;;;;10.65;100.00;101942.06;5060873;28;20025;-83
2022/10/31 04:48:13;;;;;;;22.27;16.63;;;;;;;10.66;100.00;101937.66;5032735;28;20028;-84
2022/10/31 04:50:39;;;;;;;24.70;16.55;;;;;;;10.64;100.00;101945.63;5028850;28;20721;-83
2022/10/31 04:53:05;;;;;;;22.90;16.10;;;;;;;10.65;100.00;101944.69;5038395;28;20711;-83
2022/10/31 04:55:30;;;;;;;22.90;17.05;;;;;;;10.63;100.00;101948.38;5042851;28;20171;-84
2022/10/31 04:57:58;;;;;;;20.35;16.00;;;;;;;10.58;100.00;101950.41;5032538;28;20021;-84
2022/10/31 05:00:24;;;;;;;21.75;16.77;;;;;;;10.55;100.00;101943.53;5063659;28;20453;-83
2022/10/31 05:02:52;;;;;;;22.80;16.65;;;;;;;10.52;100.00;101941.06;5048023;28;20028;-84
2022/10/31 05:05:20;;;;;;;18.70;16.60;;;;;;;10.52;100.00;101935.81;5039975;28;20033;-84
2022/10/31 05:07:46;;;;;;;19.45;15.57;;;;;;;10.48;100.00;101931.66;5026035;28;20508;-84
2022/10/31 05:10:15;;;;;;;23.40;16.20;;;;;;;10.46;100.00;101930.91;5026530;28;20489;-84
2022/10/31 05:13:09;;;;;;;22.23;16.48;;;;;;;10.49;100.00;101933.34;5027736;28;20509;-84
2022/10/31 05:15:35;;;;;;;18.45;15.40;;;;;;;10.40;100.00;101928.59;5024276;28;20048;-84
2022/10/31 05:18:00;;;;;;;20.95;15.98;;;;;;;10.35;100.00;101928.00;5028558;28;20017;-84
2022/10/31 05:20:28;;;;;;;21.75;15.82;;;;;;;10.40;100.00;101930.38;5023291;28;20059;-84
2022/10/31 05:22:59;;;;;;;18.63;15.50;;;;;;;10.33;100.00;101929.88;5060541;28;20021;-84
2022/10/31 05:25:26;;;;;;;20.25;16.30;;;;;;;10.35;100.00;101938.53;5028090;28;20035;-84
2022/10/31 05:27:54;;;;;;;19.73;16.48;;;;;;;10.33;100.00;101929.88;5022852;28;20018;-84
2022/10/31 05:30:26;;;;;;;22.75;17.42;;;;;;;10.34;100.00;101926.31;5009491;28;20030;-84
2022/10/31 05:32:52;;;;;;;24.52;17.25;;;;;;;10.33;100.00;101919.34;5045389;28;20065;-84
2022/10/31 05:35:23;;;;;;;21.95;17.05;;;;;;;10.35;100.00;101928.84;5024339;28;20069;-84
2022/10/31 05:37:48;;;;;;;20.77;17.05;;;;;;;10.35;100.00;101922.75;5013032;28;20033;-84
2022/10/31 05:40:16;;;;;;;21.77;16.85;;;;;;;10.31;100.00;101918.59;5048379;28;20028;-85
2022/10/31 05:42:42;;;;;;;20.38;16.60;;;;;;;10.30;100.00;101914.25;5052241;28;20017;-84
2022/10/31 05:45:09;;;;;;;22.50;17.13;;;;;;;10.27;100.00;101917.91;5051494;28;20025;-85
2022/10/31 05:47:35;;;;;;;27.27;17.67;;;;;;;10.31;100.00;101913.31;5050678;28;20525;-85
2022/10/31 05:50:00;;;;;;;27.75;18.95;;;;;;;10.31;100.00;101910.69;5051097;28;20016;-85
2022/10/31 05:52:25;;;;;;;23.33;18.27;;;;;;;10.27;100.00;101910.03;5051900;28;20029;-84
2022/10/31 05:54:54;;;;;;;23.25;17.27;;;;;;;10.28;100.00;101911.72;5052393;28;20381;-85
2022/10/31 05:57:19;;;;;;;22.20;16.85;;;;;;;10.26;100.00;101907.47;5039649;28;20034;-84
2022/10/31 05:59:44;;;;;;;21.33;16.85;;;;;;;10.24;100.00;101909.34;5050130;28;20055;-85
2022/10/31 06:02:10;;;;;;;24.67;17.25;;;;;;;10.21;100.00;101901.63;5050124;28;20106;-85
2022/10/31 06:04:35;;;;;;;22.55;17.50;;;;;;;10.15;100.00;101900.16;5050996;28;20048;-85
2022/10/31 06:07:00;;;;;;;23.15;16.50;;;;;;;10.14;100.00;101895.81;5051532;28;20082;-84
2022/10/31 06:09:26;;;;;;;23.60;17.15;;;;;;;10.13;100.00;101890.66;5051011;28;20059;-85
2022/10/31 06:11:51;;;;;;;21.92;17.50;;;;;;;10.10;100.00;101888.19;5043162;28;20437;-85
2022/10/31 06:14:16;;;;;;;25.67;17.20;;;;;;;10.08;100.00;101884.81;5028786;28;20025;-85
2022/10/31 06:16:42;;;;;;;23.92;17.90;;;;;;;10.07;100.00;101896.25;5032177;28;20109;-84
2022/10/31 06:19:07;;;;;;;25.30;18.02;;;;;;;10.07;100.00;101891.84;5037637;28;20025;-85
2022/10/31 06:21:32;;;;;;;25.23;19.17;;;;;;;10.10;100.00;101901.34;5066857;28;20550;-84
2022/10/31 06:23:58;;;;;;;26.52;19.38;;;;;;;10.07;100.00;101897.09;5051544;28;20520;-84
2022/10/31 06:26:23;;;;;;;23.95;18.95;;;;;;;10.05;100.00;101893.72;5066980;28;20091;-84
2022/10/31 06:28:48;;;;;;;25.58;20.02;;;;;;;10.08;100.00;101897.94;5050313;28;20028;-84
2022/10/31 06:31:14;;;;;;;22.85;18.63;;;;;;;10.11;100.00;101892.53;5035394;28;20040;-84
2022/10/31 06:33:41;;;;;;;27.98;20.20;;;;;;;10.12;100.00;101902.09;5043118;28;20096;-84
2022/10/31 06:36:07;;;;;;;25.98;20.30;;;;;;;10.12;100.00;101899.47;5028063;28;20065;-84
2022/10/31 06:38:32;;;;;;;26.63;20.58;;;;;;;10.16;100.00;101906.25;5036260;28;20433;-84
2022/10/31 06:41:02;;;;;;;26.38;19.88;;;;;;;10.14;100.00;101908.97;5050124;28;20037;-84
2022/10/31 06:43:27;;;;;;;25.05;19.95;;;;;;;10.13;100.00;101909.06;5053108;28;20037;-84
2022/10/31 06:45:52;;;;;;;29.02;20.42;;;;;;;10.10;100.00;101896.94;5027648;28;20035;-84
2022/10/31 06:48:18;;;;;;;32.13;20.77;;;;;;;10.13;100.00;101895.91;5028090;28;20104;-84
2022/10/31 06:50:43;;;;;;;26.30;19.50;;;;;;;10.13;100.00;101894.13;5051208;28;20029;-84
2022/10/31 06:53:13;;;;;;;27.08;20.25;;;;;;;10.17;100.00;101900.06;5065721;28;20028;-84
2022/10/31 06:55:39;;;;;;;28.60;20.77;;;;;;;10.14;100.00;101897.59;5046407;28;20017;-84
2022/10/31 06:58:05;;;;;;;31.25;22.63;;;;;;;10.20;100.00;101897.25;5044144;28;20051;-84
2022/10/31 07:00:30;;;;;;;30.42;22.40;;;;;;;10.25;100.00;101897.88;5049910;28;20029;-84
2022/10/31 07:03:01;;;;;;;29.25;20.35;;;;;;;10.25;100.00;101906.63;5047505;28;20044;-84
2022/10/31 07:05:27;;;;;;;29.40;21.17;;;;;;;10.29;100.00;101896.78;5062564;28;20073;-84
2022/10/31 07:08:01;;;;;;;33.15;21.25;;;;;;;10.32;100.00;101901.88;5030622;28;20044;-84
2022/10/31 07:10:28;;;;;;;33.15;22.27;;;;;;;10.37;100.00;101902.44;5082521;28;20474;-85
2022/10/31 07:12:56;;;;;;;29.65;20.90;;;;;;;10.43;100.00;101903.91;5049695;28;20526;-84
2022/10/31 07:15:22;;;;;;;29.20;22.15;;;;;;;10.45;100.00;101908.16;5046319;28;20060;-84
2022/10/31 07:17:47;;;;;;;31.30;22.92;;;;;;;10.51;100.00;101897.28;5029549;28;20029;-84
2022/10/31 07:20:13;;;;;;;32.90;23.15;;;;;;;10.57;100.00;101891.66;5030232;28;20493;-84
2022/10/31 07:22:38;;;;;;;31.88;22.60;;;;;;;10.61;100.00;101902.84;5030487;28;20112;-84
2022/10/31 07:25:04;;;;;;;35.92;23.75;;;;;;;10.63;100.00;101903.63;5030917;28;20054;-84
2022/10/31 07:27:38;;;;;;;31.73;23.95;;;;;;;10.68;100.00;101905.03;5030111;28;20064;-84
2022/10/31 07:30:08;;;;;;;31.52;23.25;;;;;;;10.75;100.00;101910.81;5038444;28;20032;-84
2022/10/31 07:32:44;;;;;;;37.35;24.23;;;;;;;10.79;100.00;101907.06;5050746;28;20047;-84
2022/10/31 07:35:12;;;;;;;28.45;23.80;;;;;;;10.84;100.00;101909.44;5028442;28;20030;-84
2022/10/31 07:37:38;;;;;;;33.13;24.73;;;;;;;10.89;100.00;101910.03;5062173;28;20044;-83
2022/10/31 07:40:05;;;;;;;32.55;23.83;;;;;;;10.97;100.00;101913.06;5045940;28;20473;-83
2022/10/31 07:42:37;;;;;;;34.40;24.40;;;;;;;11.04;100.00;101908.28;5050233;28;20032;-83
2022/10/31 07:45:08;;;;;;;38.53;25.17;;;;;;;11.06;100.00;101909.03;5050457;28;20112;-84
2022/10/31 07:47:51;;;;;;;35.03;24.50;;;;;;;11.12;100.00;101904.25;5050543;28;20031;-83
2022/10/31 07:50:17;;;;;;;;;;;;;;;11.22;100.00;101900.13;5047655;28;20634;-84
2022/10/31 07:52:43;;;;;;;38.33;27.88;;;;;;;11.23;100.00;101909.75;5053517;28;19964;-84
2022/10/31 07:55:12;;;;;;;39.78;28.25;;;;;;;11.25;100.00;101905.22;5024401;28;20474;-84
2022/10/31 07:57:37;;;;;;;46.85;30.73;;;;;;;11.35;100.00;101915.22;5060745;28;20362;-84
2022/10/31 08:00:08;;;;;;;44.88;30.40;;;;;;;11.41;100.00;101914.84;5044251;28;20082;-84
2022/10/31 08:02:33;;;;;;;41.80;30.75;;;;;;;11.50;100.00;101909.00;5029565;28;20033;-84
2022/10/31 08:04:59;;;;;;;40.33;28.77;;;;;;;11.54;100.00;101911.34;5029002;28;20099;-84
2022/10/31 08:07:28;;;;;;;42.90;28.90;;;;;;;11.66;100.00;101915.06;5029702;28;20098;-84
2022/10/31 08:09:54;;;;;;;45.65;30.48;;;;;;;11.77;100.00;101915.22;5024607;28;20026;-84
2022/10/31 08:12:20;;;;;;;43.88;33.08;;;;;;;11.93;100.00;101918.63;5040951;28;20040;-84
2022/10/31 08:14:45;;;;;;;45.72;32.58;;;;;;;12.03;100.00;101912.81;5048398;28;20060;-84
2022/10/31 08:17:11;;;;;;;57.67;35.17;;;;;;;12.23;100.00;101909.72;5044820;28;20492;-84
2022/10/31 08:19:36;;;;;;;52.08;35.95;;;;;;;12.32;100.00;101909.13;5044368;28;20037;-84
2022/10/31 08:22:01;;;;;;;50.85;36.50;;;;;;;12.45;100.00;101894.22;5028516;28;20219;-83
2022/10/31 08:24:27;;;;;;;53.13;36.03;;;;;;;12.51;100.00;101896.47;5060860;28;20174;-83
2022/10/31 08:26:52;;;;;;;52.38;36.72;;;;;;;12.63;100.00;101899.22;5047434;28;20075;-84
2022/10/31 08:29:18;;;;;;;53.45;36.97;;;;;;;12.73;100.00;101918.78;5043413;28;20029;-84
2022/10/31 08:31:43;;;;;;;58.30;37.67;;;;;;;12.85;100.00;101913.56;5044756;28;20021;-88
2022/10/31 08:34:08;;;;;;;59.20;37.40;;;;;;;12.95;100.00;101900.59;5039201;28;20044;-87
2022/10/31 08:36:34;;;;;;;48.88;36.55;;;;;;;13.05;100.00;101898.16;5023337;28;20021;-87
2022/10/31 08:38:59;;;;;;;51.88;36.03;;;;;;;13.09;100.00;101887.28;5029213;28;20029;-87
2022/10/31 08:41:24;;;;;;;52.97;36.22;;;;;;;13.12;100.00;101868.56;5033004;28;20032;-87
2022/10/31 08:43:50;;;;;;;56.58;36.10;;;;;;;13.13;100.00;101843.84;5064571;28;20108;-87
2022/10/31 08:46:15;;;;;;;50.05;37.10;;;;;;;13.12;100.00;101852.72;5047974;28;20029;-87
2022/10/31 08:48:41;;;;;;;51.35;35.72;;;;;;;13.14;100.00;101861.38;5048994;28;20037;-88
2022/10/31 08:51:06;;;;;;;51.88;36.08;;;;;;;13.13;100.00;101851.78;5025207;28;20039;-84
2022/10/31 08:53:32;;;;;;;49.95;35.20;;;;;;;13.14;100.00;101864.03;5022059;28;20052;-84
2022/10/31 08:55:57;;;;;;;46.25;33.33;;;;;;;13.17;100.00;101879.72;5025595;28;20406;-83
2022/10/31 08:58:24;;;;;;;45.58;33.28;;;;;;;13.19;100.00;101884.88;5039760;28;20112;-84
2022/10/31 09:00:51;;;;;;;46.47;33.10;;;;;;;13.25;100.00;101879.22;5024793;28;20025;-84
2022/10/31 09:03:19;;;;;;;46.22;32.25;;;;;;;13.27;100.00;101879.09;5021752;28;20079;-84
2022/10/31 09:05:45;;;;;;;45.75;32.92;;;;;;;13.31;100.00;101862.06;5044128;28;20049;-84
2022/10/31 09:08:11;;;;;;;45.28;32.55;;;;;;;13.31;100.00;101870.00;5029556;28;20060;-85
2022/10/31 09:10:38;;;;;;;44.45;32.88;;;;;;;13.35;100.00;101868.84;5032515;28;20101;-85
2022/10/31 09:13:12;;;;;;;45.72;33.53;;;;;;;13.42;100.00;101867.47;5032158;28;20101;-85
2022/10/31 09:15:39;;;;;;;47.08;32.97;;;;;;;13.45;100.00;101875.16;5026778;28;20029;-85
2022/10/31 09:18:06;;;;;;;45.15;32.22;;;;;;;13.52;100.00;101887.00;5031670;28;20496;-85
2022/10/31 09:20:33;;;;;;;48.70;32.75;;;;;;;13.58;100.00;101870.72;5031149;28;20018;-85
2022/10/31 09:23:03;;;;;;;45.88;32.25;;;;;;;13.60;100.00;101847.66;5029011;28;20047;-86
2022/10/31 09:25:29;;;;;;;44.63;32.53;;;;;;;13.67;100.00;101838.34;5026969;28;20037;-85
2022/10/31 09:27:59;;;;;;;50.55;34.28;;;;;;;13.76;100.00;101829.75;5030620;28;20029;-85
2022/10/31 09:30:27;;;;;;;44.15;33.30;;;;;;;13.83;100.00;101830.16;5030207;28;20432;-85
2022/10/31 09:33:03;;;;;;;45.78;32.20;;;;;;;13.90;100.00;101827.91;5028153;28;20021;-85
2022/10/31 09:35:29;;;;;;;46.80;32.40;;;;;;;13.93;100.00;101822.38;5028869;28;20112;-85
2022/10/31 09:38:02;;;;;;;47.28;33.40;;;;;;;13.96;100.00;101801.00;5022839;28;20096;-85
2022/10/31 09:40:36;;;;;;;47.33;33.50;;;;;;;13.93;100.00;101802.06;5022426;28;20055;-84
2022/10/31 09:43:04;;;;;;;48.28;33.53;;;;;;;13.96;100.00;101809.78;5020824;28;20029;-84
2022/10/31 09:45:47;;;;;;;48.08;33.72;;;;;;;13.97;100.00;101807.97;5031225;28;20037;-84
2022/10/31 09:48:34;;;;;;;46.53;33.92;;;;;;;14.00;100.00;101827.13;5053543;28;20035;-84
2022/10/31 09:51:29;;;;;;;46.85;33.53;;;;;;;14.03;100.00;101820.78;5030123;28;20049;-84
2022/10/31 09:54:05;;;;;;;47.50;33.65;;;;;;;14.07;100.00;101806.38;5029719;28;20095;-85
2022/10/31 09:56:31;;;;;;;45.92;33.90;;;;;;;14.07;100.00;101795.78;5028391;28;20029;-84
2022/10/31 09:59:00;;;;;;;49.67;35.28;;;;;;;14.08;100.00;101805.41;5026455;28;20104;-84
2022/10/31 10:02:10;;;;;;;51.60;34.08;;;;;;;14.16;100.00;101803.03;5024214;28;20339;-84
2022/10/31 10:04:44;;;;;;;47.75;35.30;;;;;;;14.20;100.00;101798.38;5004304;28;20045;-85
2022/10/31 10:07:36;;;;;;;47.80;34.80;;;;;;;14.25;100.00;101770.59;5062981;28;20116;-85
2022/10/31 10:10:32;;;;;;;49.97;35.85;;;;;;;14.33;100.00;101775.31;5049295;28;20035;-85
2022/10/31 10:13:12;;;;;;;46.45;34.28;;;;;;;14.47;100.00;101769.03;5027967;28;20536;-85
2022/10/31 10:15:40;;;;;;;50.35;33.55;;;;;;;14.52;100.00;101764.22;5018917;28;20497;-84
2022/10/31 10:18:27;;;;;;;49.75;34.40;;;;;;;14.53;100.00;101768.56;5026640;28;20026;-84
2022/10/31 10:21:23;;;;;;;49.72;33.55;;;;;;;14.58;100.00;101766.41;5027636;28;20033;-84
2022/10/31 10:24:12;;;;;;;49.00;33.97;;;;;;;14.59;100.00;101752.19;5050934;28;20077;-84
2022/10/31 10:26:43;;;;;;;51.75;34.35;;;;;;;14.59;100.00;101741.59;5067243;28;20029;-84
2022/10/31 10:29:25;;;;;;;52.65;34.95;;;;;;;14.64;100.00;101736.78;5049967;28;20029;-84
2022/10/31 10:31:53;;;;;;;53.10;36.05;;;;;;;14.64;100.00;101736.78;5049523;28;20025;-85
2022/10/31 10:34:23;;;;;;;54.78;35.25;;;;;;;14.71;100.00;101753.91;5040564;28;20086;-85
2022/10/31 10:36:58;;;;;;;54.55;36.33;;;;;;;14.73;100.00;101760.75;5047866;28;20028;-84
2022/10/31 10:39:36;;;;;;;53.70;36.80;;;;;;;14.77;100.00;101766.66;5036166;28;20032;-84
2022/10/31 10:47:44;;;;;;;55.05;36.63;;;;;;;14.94;100.00;101763.56;5048990;28;20040;-85
2022/10/31 10:50:19;;;;;;;56.75;36.55;;;;;;;14.98;100.00;101749.13;5046513;28;20126;-84
2022/10/31 10:53:21;;;;;;;56.88;37.03;;;;;;;15.05;100.00;101749.47;5025264;28;20084;-84
2022/10/31 10:56:08;;;;;;;59.08;37.17;;;;;;;15.14;100.00;101732.00;5026491;28;20032;-84
2022/10/31 10:58:36;;;;;;;52.28;37.08;;;;;;;15.14;100.00;101727.53;5024891;28;20040;-84
2022/10/31 11:01:08;;;;;;;56.65;36.55;;;;;;;15.20;100.00;101732.34;5029411;28;20021;-84
2022/10/31 11:03:35;;;;;;;62.47;36.67;;;;;;;15.23;100.00;101732.13;5023536;28;20021;-84
2022/10/31 11:06:01;;;;;;;62.38;37.78;;;;;;;15.35;100.00;101736.47;5043433;28;20036;-84
2022/10/31 11:08:35;;;;;;;58.22;37.40;;;;;;;15.43;100.00;101743.78;5011070;28;20038;-84
2022/10/31 11:11:06;;;;;;;53.45;36.67;;;;;;;15.50;100.00;101739.69;5028758;28;20088;-84
2022/10/31 11:13:33;;;;;;;55.53;36.47;;;;;;;15.53;100.00;101727.97;5028618;28;20524;-84
2022/10/31 11:16:03;;;;;;;50.88;35.30;;;;;;;15.61;100.00;101723.78;5013425;28;20663;-84
2022/10/31 11:18:41;;;;;;;59.38;36.50;;;;;;;15.72;100.00;101717.59;5048910;28;20025;-84
2022/10/31 11:21:28;;;;;;;54.40;34.15;;;;;;;15.79;100.00;101704.66;5027165;28;20022;-84